Time;durP1;ratioP1;P1;durP2;ratioP2;P2;SDS_P1;SDS_P2;PMS_P1;PMS_P2;Temp;Humidity;BMP_temperature;BMP_pressure;BME280_temperature;BME280_humidity;BME280_pressure;Samples;Min_cycle;Max_cycle;Signal;HPM_P1;HPM_P2
2022/01/01 00:00:08;;;;;;;37.45;21.10;;;5.30;99.90;;;;;;5029088;28;20062;-76
2022/01/01 00:02:35;;;;;;;37.10;20.05;;;5.20;99.90;;;;;;5028461;28;20052;-76
2022/01/01 00:05:00;;;;;;;34.92;19.73;;;5.30;99.90;;;;;;5026729;28;20430;-76
2022/01/01 00:07:26;;;;;;;34.88;19.40;;;5.30;99.90;;;;;;5025917;28;20518;-76
2022/01/01 00:09:52;;;;;;;32.45;18.20;;;5.30;99.90;;;;;;5027957;28;20126;-76
2022/01/01 00:12:18;;;;;;;33.10;19.02;;;5.20;99.90;;;;;;5029342;28;20026;-76
2022/01/01 00:14:44;;;;;;;37.83;19.02;;;5.10;99.90;;;;;;5027721;28;20025;-76
2022/01/01 00:17:10;;;;;;;33.22;18.83;;;5.10;99.90;;;;;;5027831;28;20148;-76
2022/01/01 00:19:36;;;;;;;34.30;18.52;;;5.20;99.90;;;;;;5027501;28;20025;-75
2022/01/01 00:22:03;;;;;;;29.73;18.52;;;5.10;99.90;;;;;;5024843;28;20028;-76
2022/01/01 00:24:29;;;;;;;30.30;18.40;;;5.00;99.90;;;;;;5028318;28;20033;-76
2022/01/01 00:26:54;;;;;;;35.78;19.95;;;5.00;99.90;;;;;;5028356;28;20112;-76
2022/01/01 00:29:20;;;;;;;30.10;19.45;;;5.00;99.90;;;;;;5015545;28;20049;-75
2022/01/01 00:31:46;;;;;;;37.55;20.98;;;5.10;99.90;;;;;;5027722;28;20525;-76
2022/01/01 00:34:13;;;;;;;35.50;19.85;;;5.00;99.90;;;;;;5028258;28;20499;-76
2022/01/01 00:36:39;;;;;;;34.00;20.25;;;5.00;99.90;;;;;;5026251;28;20574;-76
2022/01/01 00:39:05;;;;;;;37.80;20.45;;;5.00;99.90;;;;;;5029310;28;20036;-75
2022/01/01 00:41:31;;;;;;;38.42;21.30;;;4.90;99.90;;;;;;5030386;28;20029;-75
2022/01/01 00:43:57;;;;;;;37.75;21.80;;;5.00;99.90;;;;;;5025529;28;20585;-75
2022/01/01 00:46:22;;;;;;;42.22;21.73;;;4.90;99.90;;;;;;5021578;28;20235;-76
2022/01/01 00:48:48;;;;;;;39.40;21.55;;;4.90;99.90;;;;;;5026484;28;20037;-76
2022/01/01 00:51:14;;;;;;;38.63;20.88;;;4.90;99.90;;;;;;5027725;28;20035;-76
2022/01/01 00:53:40;;;;;;;39.28;21.55;;;4.90;99.90;;;;;;5027591;28;20552;-76
2022/01/01 00:56:06;;;;;;;39.40;21.48;;;4.80;99.90;;;;;;5027061;28;20021;-75
2022/01/01 00:58:31;;;;;;;36.05;21.38;;;4.80;99.90;;;;;;5025774;28;20569;-76
2022/01/01 01:00:57;;;;;;;38.45;21.27;;;4.90;99.90;;;;;;5026577;28;20513;-75
2022/01/01 01:03:22;;;;;;;39.53;21.83;;;4.80;99.90;;;;;;5027660;28;20026;-76
2022/01/01 01:05:48;;;;;;;38.17;21.75;;;4.80;99.90;;;;;;5028546;28;20022;-75
2022/01/01 01:08:16;;;;;;;35.63;21.85;;;4.70;99.90;;;;;;5022597;28;20029;-75
2022/01/01 01:10:47;;;;;;;40.72;21.98;;;4.70;99.90;;;;;;5027495;28;20589;-75
2022/01/01 01:13:15;;;;;;;34.13;19.73;;;4.60;99.90;;;;;;5025061;28;20025;-76
2022/01/01 01:15:42;;;;;;;32.90;19.08;;;4.60;99.90;;;;;;5026729;28;20090;-75
2022/01/01 01:18:08;;;;;;;33.85;19.25;;;4.70;99.90;;;;;;5027446;28;20013;-76
2022/01/01 01:20:33;;;;;;;38.78;20.73;;;4.70;99.90;;;;;;5025337;28;20457;-75
2022/01/01 01:23:00;;;;;;;42.67;22.40;;;4.80;99.90;;;;;;5027330;28;20025;-75
2022/01/01 01:25:29;;;;;;;37.30;21.52;;;4.80;99.90;;;;;;5026898;28;20506;-75
2022/01/01 01:27:55;;;;;;;38.03;20.13;;;4.80;99.90;;;;;;5026338;28;20119;-75
2022/01/01 01:30:22;;;;;;;36.15;20.30;;;4.70;99.90;;;;;;5026473;28;20120;-75
2022/01/01 01:32:48;;;;;;;35.75;19.88;;;4.70;99.90;;;;;;5026882;28;20029;-75
2022/01/01 01:35:15;;;;;;;32.72;19.65;;;4.80;99.90;;;;;;5026475;28;20061;-75
2022/01/01 01:37:41;;;;;;;38.63;21.85;;;4.80;99.90;;;;;;5027011;28;20022;-75
2022/01/01 01:40:08;;;;;;;37.33;20.60;;;4.70;99.90;;;;;;5025117;28;20029;-75
2022/01/01 01:42:35;;;;;;;37.55;21.58;;;4.70;99.90;;;;;;5027814;28;20506;-75
2022/01/01 01:45:03;;;;;;;35.20;20.10;;;4.60;99.90;;;;;;5026876;28;20049;-75
2022/01/01 01:47:31;;;;;;;36.45;20.33;;;4.60;99.90;;;;;;5014975;28;20036;-74
2022/01/01 01:49:59;;;;;;;35.42;20.17;;;4.60;99.90;;;;;;5026076;28;20021;-74
2022/01/01 01:52:31;;;;;;;38.10;21.10;;;4.60;99.90;;;;;;5027830;28;20103;-74
2022/01/01 01:54:57;;;;;;;36.20;19.55;;;4.60;99.90;;;;;;5029231;28;20502;-74
2022/01/01 01:57:25;;;;;;;36.55;21.20;;;4.50;99.90;;;;;;5029803;28;20036;-74
2022/01/01 01:59:52;;;;;;;34.88;19.77;;;4.50;99.90;;;;;;5031829;28;20052;-74
2022/01/01 02:02:18;;;;;;;33.30;19.90;;;4.50;99.90;;;;;;5030839;28;20526;-74
2022/01/01 02:04:44;;;;;;;34.53;20.63;;;4.40;99.90;;;;;;5029648;28;20064;-73
2022/01/01 02:07:11;;;;;;;36.03;19.08;;;4.30;99.90;;;;;;5027715;28;20029;-75
2022/01/01 02:09:38;;;;;;;37.17;20.27;;;4.40;99.90;;;;;;5029206;28;20087;-73
2022/01/01 02:12:06;;;;;;;38.72;20.23;;;4.30;99.90;;;;;;5031347;28;20120;-74
2022/01/01 02:17:35;;;;;;;33.38;19.67;;;4.10;99.90;;;;;;5024263;28;20037;-75
2022/01/01 02:20:14;;;;;;;30.92;19.73;;;4.20;99.90;;;;;;5029785;28;20040;-75
2022/01/01 02:22:47;;;;;;;31.92;18.27;;;4.10;99.90;;;;;;5030253;28;20569;-76
2022/01/01 02:25:15;;;;;;;33.50;18.55;;;4.10;99.90;;;;;;5027535;28;20050;-73
2022/01/01 02:27:42;;;;;;;30.65;18.58;;;4.20;99.90;;;;;;5028435;28;20092;-73
2022/01/01 02:30:10;;;;;;;34.38;19.27;;;4.10;99.90;;;;;;5032434;28;20038;-74
2022/01/01 02:32:36;;;;;;;34.47;19.15;;;4.10;99.90;;;;;;5029882;28;20033;-74
2022/01/01 02:35:04;;;;;;;29.40;17.27;;;4.10;99.90;;;;;;5028612;28;20450;-73
2022/01/01 02:37:31;;;;;;;31.30;19.02;;;4.00;99.90;;;;;;5028565;28;20518;-74
2022/01/01 02:39:57;;;;;;;28.55;17.52;;;4.00;99.90;;;;;;5028707;28;20618;-74
2022/01/01 02:42:23;;;;;;;30.48;16.70;;;4.00;99.90;;;;;;5030785;28;20018;-74
2022/01/01 02:44:50;;;;;;;34.03;19.08;;;4.10;99.90;;;;;;5031137;28;20519;-74
2022/01/01 02:47:17;;;;;;;32.97;18.88;;;4.20;99.90;;;;;;5024032;28;20033;-74
2022/01/01 02:49:42;;;;;;;30.90;17.98;;;4.10;99.90;;;;;;5029125;28;20033;-74
2022/01/01 02:52:09;;;;;;;31.67;18.27;;;3.90;99.90;;;;;;5028516;28;20488;-74
2022/01/01 02:54:34;;;;;;;26.15;15.35;;;3.80;99.90;;;;;;5028886;28;20026;-74
2022/01/01 02:57:01;;;;;;;26.60;16.30;;;3.60;99.90;;;;;;5026555;28;20025;-74
2022/01/01 02:59:26;;;;;;;27.00;15.00;;;3.60;99.90;;;;;;5028251;28;20108;-74
2022/01/01 03:01:52;;;;;;;25.15;14.45;;;3.60;99.90;;;;;;5028309;28;20097;-74
2022/01/01 03:04:18;;;;;;;23.15;14.00;;;3.70;99.90;;;;;;5024870;28;20502;-74
2022/01/01 03:06:45;;;;;;;23.02;13.48;;;3.70;99.90;;;;;;5026577;28;20485;-74
2022/01/01 03:09:11;;;;;;;27.27;13.88;;;3.90;99.90;;;;;;5030297;28;20410;-74
2022/01/01 03:11:37;;;;;;;25.55;13.20;;;3.90;99.90;;;;;;5029618;28;20497;-74
2022/01/01 03:14:03;;;;;;;21.70;12.73;;;3.80;99.90;;;;;;5026306;28;20057;-74
2022/01/01 03:16:28;;;;;;;22.98;13.13;;;3.80;99.90;;;;;;5028202;28;20071;-74
2022/01/01 03:18:54;;;;;;;21.08;12.32;;;3.70;99.90;;;;;;5028566;28;20025;-74
2022/01/01 03:21:20;;;;;;;20.50;13.13;;;3.80;99.90;;;;;;5030123;28;20466;-74
2022/01/01 03:23:45;;;;;;;22.15;12.10;;;3.80;99.90;;;;;;5024856;28;20029;-74
2022/01/01 03:26:11;;;;;;;19.85;13.00;;;3.80;99.90;;;;;;5023997;28;20051;-74
2022/01/01 03:28:37;;;;;;;22.33;11.95;;;3.70;99.90;;;;;;5027123;28;20044;-74
2022/01/01 03:31:03;;;;;;;19.25;11.07;;;3.70;99.90;;;;;;5028510;28;20029;-74
2022/01/01 03:33:29;;;;;;;21.08;11.60;;;3.70;99.90;;;;;;5028057;28;20034;-75
2022/01/01 03:35:55;;;;;;;19.05;11.02;;;3.50;99.90;;;;;;5030360;28;20029;-74
2022/01/01 03:38:21;;;;;;;15.93;10.73;;;3.50;99.90;;;;;;5028386;28;20026;-74
2022/01/01 03:40:46;;;;;;;19.55;11.10;;;3.60;99.90;;;;;;5027583;28;20022;-74
2022/01/01 03:43:12;;;;;;;16.45;9.90;;;3.30;99.90;;;;;;5024916;28;20022;-74
2022/01/01 03:45:38;;;;;;;15.98;10.63;;;3.40;99.90;;;;;;4979916;28;1382842;-74
2022/01/01 03:48:05;;;;;;;17.38;10.18;;;3.50;99.90;;;;;;5037758;28;20048;-74
2022/01/01 03:50:32;;;;;;;18.17;10.20;;;3.60;99.90;;;;;;5026885;28;20064;-74
2022/01/01 03:52:58;;;;;;;17.95;11.32;;;3.60;99.90;;;;;;5028914;28;20129;-75
2022/01/01 03:55:23;;;;;;;15.50;9.25;;;3.50;99.90;;;;;;5028728;28;20669;-74
2022/01/01 03:57:49;;;;;;;20.95;10.70;;;3.60;99.90;;;;;;5029594;28;20095;-74
2022/01/01 04:00:15;;;;;;;19.42;9.88;;;3.30;99.90;;;;;;5030932;28;20499;-74
2022/01/01 04:02:41;;;;;;;17.75;9.57;;;3.20;99.90;;;;;;5024191;28;20063;-74
2022/01/01 04:05:07;;;;;;;17.27;10.10;;;3.30;99.90;;;;;;5024220;28;20112;-74
2022/01/01 04:07:33;;;;;;;16.35;10.43;;;3.30;99.90;;;;;;5028661;28;20564;-74
2022/01/01 04:09:59;;;;;;;19.23;10.25;;;3.40;99.90;;;;;;5028510;28;20033;-75
2022/01/01 04:12:26;;;;;;;18.23;10.32;;;3.40;99.90;;;;;;5029444;28;20514;-75
2022/01/01 04:14:52;;;;;;;15.23;9.60;;;3.40;99.90;;;;;;5029142;28;20037;-74
2022/01/01 04:17:18;;;;;;;16.45;10.77;;;3.40;99.90;;;;;;5026957;28;20026;-74
2022/01/01 04:19:44;;;;;;;16.75;10.15;;;3.50;99.90;;;;;;5026461;28;20029;-74
2022/01/01 04:22:13;;;;;;;17.65;10.10;;;3.40;99.90;;;;;;5026017;28;20542;-74
2022/01/01 04:24:40;;;;;;;16.45;10.30;;;3.30;99.90;;;;;;5027093;28;20071;-75
2022/01/01 04:27:06;;;;;;;16.25;9.68;;;3.30;99.90;;;;;;5030996;28;20029;-74
2022/01/01 04:29:33;;;;;;;15.55;9.07;;;3.40;99.90;;;;;;5027991;28;20518;-74
2022/01/01 04:32:00;;;;;;;18.20;9.98;;;3.40;99.90;;;;;;5027587;28;20116;-74
2022/01/01 04:34:26;;;;;;;16.65;10.07;;;3.40;99.90;;;;;;5026437;28;20029;-74
2022/01/01 04:37:05;;;;;;;16.67;9.95;;;3.30;99.90;;;;;;5028239;28;20040;-74
2022/01/01 04:39:31;;;;;;;16.80;9.63;;;3.30;99.90;;;;;;5027944;28;20053;-74
2022/01/01 04:41:57;;;;;;;12.23;8.85;;;3.40;99.90;;;;;;5028341;28;20056;-74
2022/01/01 04:44:22;;;;;;;19.55;9.48;;;3.30;99.90;;;;;;5023508;28;20033;-74
2022/01/01 04:46:48;;;;;;;17.85;9.95;;;3.30;99.90;;;;;;5027649;28;20619;-74
2022/01/01 04:49:14;;;;;;;15.13;8.85;;;3.30;99.90;;;;;;5027646;28;20025;-74
2022/01/01 04:51:40;;;;;;;15.70;10.30;;;3.30;99.90;;;;;;5026287;28;20056;-73
2022/01/01 04:54:13;;;;;;;14.45;8.93;;;3.30;99.90;;;;;;5029677;28;20071;-74
2022/01/01 04:56:43;;;;;;;12.20;8.00;;;3.20;99.90;;;;;;5026415;28;20023;-74
2022/01/01 04:59:10;;;;;;;13.90;8.75;;;3.30;99.90;;;;;;5026847;28;20021;-74
2022/01/01 05:01:35;;;;;;;15.05;9.07;;;3.30;99.90;;;;;;5020954;28;20021;-74
2022/01/01 05:04:01;;;;;;;13.32;7.85;;;3.30;99.90;;;;;;5026937;28;20044;-74
2022/01/01 05:06:27;;;;;;;15.60;8.65;;;3.30;99.90;;;;;;5027917;28;20025;-74
2022/01/01 05:08:52;;;;;;;11.07;8.00;;;3.30;99.90;;;;;;5028224;28;20113;-74
2022/01/01 05:11:18;;;;;;;14.02;8.48;;;3.30;99.90;;;;;;5025493;28;20507;-74
2022/01/01 05:13:44;;;;;;;16.67;7.97;;;3.20;99.90;;;;;;5025368;28;20033;-74
2022/01/01 05:16:14;;;;;;;14.68;8.38;;;3.10;99.90;;;;;;5027483;28;20076;-74
2022/01/01 05:18:40;;;;;;;12.82;7.95;;;3.20;99.90;;;;;;5027284;28;20036;-75
2022/01/01 05:21:06;;;;;;;13.05;8.45;;;3.20;99.90;;;;;;5029645;28;20029;-74
2022/01/01 05:23:32;;;;;;;14.73;8.18;;;3.20;99.90;;;;;;5023121;28;20030;-74
2022/01/01 05:25:58;;;;;;;13.80;8.30;;;3.20;99.90;;;;;;5026973;28;20104;-74
2022/01/01 05:28:24;;;;;;;16.98;8.30;;;3.20;99.90;;;;;;5026454;28;20563;-73
2022/01/01 05:30:51;;;;;;;12.73;7.95;;;3.10;99.90;;;;;;5027237;28;20206;-74
2022/01/01 05:33:17;;;;;;;14.43;8.63;;;3.10;99.90;;;;;;5024873;28;20053;-74
2022/01/01 05:35:43;;;;;;;14.80;7.55;;;2.90;99.90;;;;;;5026447;28;20057;-74
2022/01/01 05:38:09;;;;;;;13.80;8.18;;;3.00;99.90;;;;;;5026739;28;20029;-75
2022/01/01 05:40:35;;;;;;;13.05;7.95;;;3.00;99.90;;;;;;5023358;28;20499;-74
2022/01/01 05:43:00;;;;;;;12.02;7.28;;;3.00;99.90;;;;;;5027183;28;20029;-74
2022/01/01 05:45:26;;;;;;;13.35;7.30;;;3.00;99.90;;;;;;5027339;28;20057;-75
2022/01/01 05:47:52;;;;;;;11.05;6.70;;;3.00;99.90;;;;;;5028513;28;20041;-73
2022/01/01 05:50:20;;;;;;;11.98;7.75;;;3.00;99.90;;;;;;5026505;28;20524;-74
2022/01/01 05:52:48;;;;;;;10.88;7.13;;;3.10;99.90;;;;;;5026833;28;20030;-74
2022/01/01 05:55:14;;;;;;;11.43;7.10;;;3.00;99.90;;;;;;5026610;28;20029;-74
2022/01/01 05:57:40;;;;;;;14.48;6.70;;;2.90;99.90;;;;;;5027123;28;20525;-74
2022/01/01 06:00:07;;;;;;;12.45;8.05;;;2.90;99.90;;;;;;5026580;28;20534;-74
2022/01/01 06:02:42;;;;;;;9.52;6.72;;;3.00;99.90;;;;;;5025121;28;20040;-74
2022/01/01 06:05:09;;;;;;;11.25;7.35;;;3.00;99.90;;;;;;5026055;28;20109;-74
2022/01/01 06:07:35;;;;;;;12.45;7.13;;;2.90;99.90;;;;;;5024845;28;20176;-74
2022/01/01 06:10:01;;;;;;;12.20;7.40;;;2.90;99.90;;;;;;5024703;28;20772;-74
2022/01/01 06:12:27;;;;;;;11.98;7.55;;;2.80;99.90;;;;;;5027268;28;20112;-74
2022/01/01 06:14:53;;;;;;;12.80;7.80;;;2.80;99.90;;;;;;5028433;28;20029;-75
2022/01/01 06:17:18;;;;;;;12.10;7.25;;;2.70;99.90;;;;;;5026508;28;20033;-74
2022/01/01 06:19:44;;;;;;;14.80;6.97;;;2.60;99.90;;;;;;5022136;28;20029;-74
2022/01/01 06:22:10;;;;;;;11.80;6.97;;;2.80;99.90;;;;;;5026435;28;20025;-74
2022/01/01 06:24:36;;;;;;;10.23;6.13;;;2.80;99.90;;;;;;5025147;28;20590;-74
2022/01/01 06:27:02;;;;;;;12.18;6.78;;;2.80;99.90;;;;;;5025634;28;20076;-74
2022/01/01 06:29:28;;;;;;;11.73;6.85;;;2.80;99.90;;;;;;5024896;28;20585;-74
2022/01/01 06:31:53;;;;;;;12.80;7.90;;;2.70;99.90;;;;;;5025987;28;20108;-74
2022/01/01 06:34:19;;;;;;;13.38;7.38;;;2.80;99.90;;;;;;5026190;28;20127;-74
2022/01/01 06:36:45;;;;;;;12.93;7.10;;;2.70;99.90;;;;;;5026757;28;20047;-74
2022/01/01 06:39:10;;;;;;;11.70;7.05;;;2.80;99.90;;;;;;5027396;28;20018;-74
2022/01/01 06:41:36;;;;;;;10.80;6.40;;;2.80;99.90;;;;;;5030255;28;20514;-74
2022/01/01 06:44:02;;;;;;;12.75;7.10;;;2.80;99.90;;;;;;5028409;28;20036;-74
2022/01/01 06:46:28;;;;;;;12.35;7.85;;;2.80;99.90;;;;;;5029930;28;20099;-74
2022/01/01 06:48:54;;;;;;;15.70;8.13;;;2.80;99.90;;;;;;5030647;28;20030;-74
2022/01/01 06:51:19;;;;;;;10.25;7.10;;;2.80;99.90;;;;;;5032530;28;20033;-74
2022/01/01 06:53:45;;;;;;;11.30;6.82;;;2.70;99.90;;;;;;5029699;28;20025;-73
2022/01/01 06:56:11;;;;;;;11.90;7.38;;;2.80;99.90;;;;;;5030251;28;20502;-74
2022/01/01 06:58:38;;;;;;;12.45;7.28;;;2.70;99.90;;;;;;5029746;28;20577;-74
2022/01/01 07:01:05;;;;;;;12.10;7.30;;;2.70;99.90;;;;;;5029570;28;20099;-74
2022/01/01 07:03:30;;;;;;;13.75;8.13;;;2.80;99.90;;;;;;5028662;28;20578;-74
2022/01/01 07:05:56;;;;;;;12.52;7.72;;;2.80;99.90;;;;;;5031149;28;20025;-74
2022/01/01 07:08:22;;;;;;;12.10;7.85;;;2.70;99.90;;;;;;5029268;28;20426;-74
2022/01/01 07:10:48;;;;;;;15.55;7.18;;;2.70;99.90;;;;;;5029621;28;20045;-74
2022/01/01 07:13:15;;;;;;;11.32;6.93;;;2.70;99.90;;;;;;5029820;28;20029;-74
2022/01/01 07:15:41;;;;;;;13.18;7.88;;;2.70;99.90;;;;;;5029468;28;20033;-74
2022/01/01 07:18:07;;;;;;;12.90;6.95;;;2.70;99.90;;;;;;5026999;28;20151;-75
2022/01/01 07:20:32;;;;;;;11.73;6.88;;;2.70;99.90;;;;;;5024873;28;20104;-74
2022/01/01 07:22:58;;;;;;;13.30;7.80;;;2.70;99.90;;;;;;5027793;28;20025;-74
2022/01/01 07:25:24;;;;;;;10.20;6.35;;;2.60;99.90;;;;;;5027917;28;20034;-74
2022/01/01 07:27:50;;;;;;;12.77;6.78;;;2.60;99.90;;;;;;5028046;28;20036;-74
2022/01/01 07:30:15;;;;;;;9.77;6.60;;;2.60;99.90;;;;;;5031262;28;20107;-75
2022/01/01 07:32:43;;;;;;;17.10;7.07;;;2.60;99.90;;;;;;5028779;28;20190;-74
2022/01/01 07:35:10;;;;;;;10.90;6.95;;;2.60;99.90;;;;;;5027174;28;20625;-74
2022/01/01 07:37:36;;;;;;;11.93;7.20;;;2.50;99.90;;;;;;5024531;28;20060;-74
2022/01/01 07:40:07;;;;;;;11.40;6.40;;;2.50;99.90;;;;;;5027600;28;20033;-74
2022/01/01 07:42:33;;;;;;;11.03;6.50;;;2.60;99.90;;;;;;5027878;28;20026;-74
2022/01/01 07:44:59;;;;;;;13.75;7.38;;;2.60;99.90;;;;;;5030511;28;20275;-73
2022/01/01 07:47:26;;;;;;;10.98;6.40;;;2.60;99.90;;;;;;5029110;28;20029;-74
2022/01/01 07:49:51;;;;;;;9.25;6.22;;;2.70;99.90;;;;;;5027506;28;20110;-74
2022/01/01 07:52:17;;;;;;;11.20;6.32;;;2.80;99.90;;;;;;5028620;28;20163;-73
2022/01/01 07:54:43;;;;;;;8.43;5.72;;;2.90;99.90;;;;;;5028464;28;20044;-73
2022/01/01 07:57:09;;;;;;;9.02;6.00;;;2.90;99.90;;;;;;5026557;28;20017;-74
2022/01/01 07:59:35;;;;;;;12.00;6.25;;;3.00;99.90;;;;;;5024585;28;20028;-74
2022/01/01 08:02:00;;;;;;;9.27;5.30;;;3.20;99.90;;;;;;5028826;28;20607;-74
2022/01/01 08:04:26;;;;;;;9.05;5.72;;;3.00;99.90;;;;;;5027143;28;20641;-74
2022/01/01 08:06:52;;;;;;;9.95;6.13;;;3.10;99.90;;;;;;5028319;28;20032;-73
2022/01/01 08:09:17;;;;;;;10.45;5.78;;;3.10;99.90;;;;;;5026764;28;20064;-74
2022/01/01 08:11:43;;;;;;;12.68;6.13;;;3.20;99.90;;;;;;5028006;28;20033;-74
2022/01/01 08:14:09;;;;;;;9.75;5.72;;;3.20;99.90;;;;;;5028214;28;20166;-74
2022/01/01 08:16:53;;;;;;;10.68;6.22;;;3.30;99.90;;;;;;5024024;28;20169;-74
2022/01/01 08:19:19;;;;;;;10.95;6.20;;;3.60;99.90;;;;;;5028378;28;20036;-74
2022/01/01 08:21:45;;;;;;;8.90;5.72;;;3.60;99.90;;;;;;5028436;28;20104;-74
2022/01/01 08:24:10;;;;;;;8.73;4.95;;;3.70;99.90;;;;;;5031616;28;20030;-74
2022/01/01 08:26:36;;;;;;;8.68;6.20;;;3.70;99.90;;;;;;5027773;28;20036;-75
2022/01/01 08:29:02;;;;;;;8.48;5.72;;;3.70;99.90;;;;;;5030371;28;20510;-74
2022/01/01 08:31:27;;;;;;;8.30;5.60;;;4.00;99.90;;;;;;5025124;28;20034;-74
2022/01/01 08:33:53;;;;;;;8.63;5.80;;;4.20;99.90;;;;;;5030931;28;20458;-74
2022/01/01 08:36:19;;;;;;;9.40;5.57;;;4.20;99.90;;;;;;5025535;28;20021;-74
2022/01/01 08:38:45;;;;;;;10.32;5.63;;;4.20;99.90;;;;;;5022744;28;20068;-74
2022/01/01 08:41:10;;;;;;;9.88;5.55;;;4.50;99.90;;;;;;5026305;28;20022;-74
2022/01/01 08:43:37;;;;;;;9.05;5.45;;;4.60;99.90;;;;;;5025460;28;20491;-74
2022/01/01 08:46:02;;;;;;;8.43;5.45;;;4.40;99.90;;;;;;5027938;28;20087;-74
2022/01/01 08:48:28;;;;;;;10.02;6.03;;;4.60;99.90;;;;;;5026390;28;20719;-75
2022/01/01 08:50:54;;;;;;;8.52;5.82;;;5.20;99.90;;;;;;5028690;28;20021;-74
2022/01/01 08:53:19;;;;;;;11.25;5.88;;;5.30;99.90;;;;;;5019790;28;20033;-74
2022/01/01 08:55:45;;;;;;;10.82;5.68;;;5.20;99.90;;;;;;5025456;28;20594;-74
2022/01/01 08:58:11;;;;;;;9.50;5.68;;;5.20;99.90;;;;;;5025799;28;20033;-74
2022/01/01 09:00:37;;;;;;;8.38;5.00;;;5.40;99.90;;;;;;5026228;28;20013;-74
2022/01/01 09:03:02;;;;;;;7.05;4.22;;;5.90;99.90;;;;;;5027047;28;20021;-74
2022/01/01 09:05:28;;;;;;;8.55;4.60;;;6.60;99.90;;;;;;5026484;28;20109;-74
2022/01/01 09:07:54;;;;;;;7.07;4.72;;;6.50;99.90;;;;;;5025953;28;20071;-74
2022/01/01 09:10:20;;;;;;;6.95;4.97;;;7.20;99.90;;;;;;5025198;28;20709;-74
2022/01/01 09:12:46;;;;;;;6.20;4.35;;;9.10;99.90;;;;;;5025524;28;20060;-74
2022/01/01 09:15:12;;;;;;;6.53;4.25;;;10.70;99.90;;;;;;5024505;28;20060;-75
2022/01/01 09:17:38;;;;;;;6.78;4.18;;;10.90;99.90;;;;;;5027004;28;20100;-74
2022/01/01 09:20:04;;;;;;;6.65;4.18;;;11.40;99.90;;;;;;5026299;28;20100;-74
2022/01/01 09:22:30;;;;;;;5.70;3.70;;;10.70;99.90;;;;;;5026484;28;20025;-74
2022/01/01 09:24:55;;;;;;;6.57;3.95;;;9.20;99.90;;;;;;5025013;28;20399;-75
2022/01/01 09:27:21;;;;;;;6.22;3.90;;;8.00;99.90;;;;;;5029063;28;20616;-74
2022/01/01 09:29:47;;;;;;;5.82;3.70;;;7.60;99.90;;;;;;5026834;28;20021;-74
2022/01/01 09:32:13;;;;;;;5.00;3.38;;;7.40;99.90;;;;;;5025232;28;20048;-77
2022/01/01 09:34:38;;;;;;;7.20;4.18;;;7.20;99.90;;;;;;5024749;28;20495;-75
2022/01/01 09:37:04;;;;;;;4.85;3.38;;;7.00;99.90;;;;;;5024269;28;20040;-76
2022/01/01 09:39:30;;;;;;;5.50;3.85;;;7.00;99.90;;;;;;5026661;28;20144;-75
2022/01/01 09:41:56;;;;;;;7.10;3.63;;;7.00;99.90;;;;;;5028113;28;20487;-75
2022/01/01 09:44:22;;;;;;;6.30;3.97;;;6.70;99.90;;;;;;5026678;28;20592;-75
2022/01/01 09:46:50;;;;;;;5.22;4.05;;;6.90;99.90;;;;;;5027679;28;20049;-75
2022/01/01 09:49:17;;;;;;;5.97;4.00;;;6.90;99.90;;;;;;5025957;28;20071;-75
2022/01/01 09:51:44;;;;;;;6.40;3.95;;;6.80;99.90;;;;;;5025024;28;20094;-76
2022/01/01 09:54:10;;;;;;;4.85;3.20;;;6.90;99.90;;;;;;5029733;28;20185;-75
2022/01/01 09:56:36;;;;;;;6.35;3.42;;;7.00;99.90;;;;;;5027000;28;20097;-75
2022/01/01 09:59:03;;;;;;;7.75;4.15;;;7.10;99.90;;;;;;5030566;28;20625;-75
2022/01/01 10:01:28;;;;;;;4.70;3.40;;;7.10;99.90;;;;;;5024199;28;20047;-75
2022/01/01 10:03:56;;;;;;;6.05;2.95;;;7.20;99.90;;;;;;5025900;28;20034;-75
2022/01/01 10:06:23;;;;;;;6.15;3.38;;;7.20;99.90;;;;;;5021839;28;20070;-75
2022/01/01 10:08:56;;;;;;;5.65;3.78;;;7.40;99.90;;;;;;5026628;28;20048;-75
2022/01/01 10:11:22;;;;;;;4.30;3.17;;;7.30;99.90;;;;;;5021914;28;20109;-74
2022/01/01 10:13:48;;;;;;;5.00;3.55;;;7.30;99.90;;;;;;5028202;28;20022;-73
2022/01/01 10:16:15;;;;;;;4.85;2.90;;;7.50;99.90;;;;;;5027934;28;20033;-74
2022/01/01 10:18:43;;;;;;;7.38;4.10;;;7.60;99.90;;;;;;5030781;28;20022;-73
2022/01/01 10:21:12;;;;;;;5.05;3.00;;;7.70;99.90;;;;;;5032253;28;20036;-74
2022/01/01 10:23:43;;;;;;;7.47;3.50;;;7.70;99.90;;;;;;5029816;28;20542;-75
2022/01/01 10:29:16;;;;;;;4.15;2.75;;;7.70;99.90;;;;;;5025857;28;20044;-74
2022/01/01 10:32:10;;;;;;;5.25;3.33;;;7.80;99.90;;;;;;5028914;28;20056;-74
2022/01/01 10:34:37;;;;;;;4.70;3.30;;;7.80;99.90;;;;;;5027493;28;20033;-74
2022/01/01 10:37:06;;;;;;;4.97;2.90;;;7.80;99.90;;;;;;5022759;28;20471;-74
2022/01/01 10:39:32;;;;;;;5.30;2.97;;;7.80;99.90;;;;;;5030087;28;20026;-74
2022/01/01 10:42:01;;;;;;;7.20;3.38;;;8.00;99.90;;;;;;5032070;28;20123;-74
2022/01/01 10:44:31;;;;;;;5.10;3.05;;;8.30;99.90;;;;;;5028482;28;20033;-74
2022/01/01 10:46:59;;;;;;;5.20;3.40;;;8.30;99.90;;;;;;5030619;28;20451;-74
2022/01/01 10:49:34;;;;;;;5.32;3.47;;;8.20;99.90;;;;;;5030239;28;20036;-74
2022/01/01 10:52:15;;;;;;;6.38;3.70;;;8.30;99.90;;;;;;5028825;28;20329;-74
2022/01/01 10:54:49;;;;;;;5.22;3.55;;;8.30;99.90;;;;;;5027254;28;20021;-74
2022/01/01 10:57:21;;;;;;;6.18;3.30;;;8.40;99.90;;;;;;5032086;28;20041;-74
2022/01/01 10:59:49;;;;;;;4.53;3.15;;;8.60;99.90;;;;;;5027213;28;20506;-74
2022/01/01 11:02:14;;;;;;;4.68;3.08;;;8.80;99.90;;;;;;5034680;28;20104;-74
2022/01/01 11:04:41;;;;;;;4.97;3.35;;;8.70;99.90;;;;;;5033884;28;20626;-75
2022/01/01 11:07:08;;;;;;;4.78;3.70;;;8.90;99.90;;;;;;5029214;28;20494;-75
2022/01/01 11:09:34;;;;;;;6.10;3.40;;;9.00;99.90;;;;;;5028346;28;20226;-75
2022/01/01 11:12:03;;;;;;;6.05;3.42;;;8.80;99.90;;;;;;5026762;28;20588;-75
2022/01/01 11:14:34;;;;;;;6.18;3.35;;;8.70;99.90;;;;;;5024963;28;20033;-75
2022/01/01 11:17:01;;;;;;;5.40;3.80;;;8.80;99.90;;;;;;5027111;28;20128;-75
2022/01/01 11:19:27;;;;;;;4.82;3.20;;;8.70;99.90;;;;;;5028272;28;20155;-75
2022/01/01 11:21:53;;;;;;;5.75;3.58;;;8.70;99.90;;;;;;5026581;28;20492;-75
2022/01/01 11:24:21;;;;;;;5.10;3.50;;;8.80;99.90;;;;;;5028593;28;20052;-75
2022/01/01 11:26:48;;;;;;;6.30;3.85;;;9.00;99.90;;;;;;5046326;28;20029;-74
2022/01/01 11:29:14;;;;;;;6.93;3.78;;;9.10;99.90;;;;;;5031955;28;20494;-74
2022/01/01 11:31:42;;;;;;;5.20;3.38;;;9.20;99.90;;;;;;5025690;28;20029;-74
2022/01/01 11:34:08;;;;;;;5.78;3.42;;;9.20;99.90;;;;;;5029056;28;20030;-74
2022/01/01 11:36:35;;;;;;;5.72;3.55;;;9.20;99.90;;;;;;5029107;28;20514;-74
2022/01/01 11:39:11;;;;;;;5.88;4.05;;;9.20;99.90;;;;;;5028851;28;20497;-74
2022/01/01 11:41:39;;;;;;;7.45;4.03;;;9.30;99.90;;;;;;5028791;28;20120;-74
2022/01/01 11:44:29;;;;;;;6.45;4.13;;;9.50;99.90;;;;;;5027733;28;20033;-74
2022/01/01 11:47:04;;;;;;;6.28;4.10;;;9.80;99.90;;;;;;5033525;28;20057;-75
2022/01/01 11:49:31;;;;;;;6.63;4.00;;;10.00;99.90;;;;;;5025005;28;20034;-75
2022/01/01 11:51:58;;;;;;;6.70;4.13;;;10.30;99.90;;;;;;5019105;28;20029;-75
2022/01/01 11:54:25;;;;;;;7.25;4.15;;;10.20;99.90;;;;;;5032718;28;20402;-74
2022/01/01 11:56:51;;;;;;;5.55;3.88;;;10.20;99.90;;;;;;5035637;28;20025;-75
2022/01/01 11:59:23;;;;;;;5.50;3.80;;;10.10;99.90;;;;;;5027665;28;20530;-76
2022/01/01 12:01:51;;;;;;;6.45;4.10;;;10.30;99.90;;;;;;5019019;28;20108;-76
2022/01/01 12:04:36;;;;;;;4.75;3.00;;;10.40;99.90;;;;;;5037071;28;20048;-75
2022/01/01 12:07:18;;;;;;;5.13;3.53;;;10.60;99.90;;;;;;5025343;28;20025;-76
2022/01/01 12:10:07;;;;;;;4.85;3.78;;;10.40;99.90;;;;;;5025219;28;20111;-75
2022/01/01 12:13:04;;;;;;;8.13;4.40;;;10.70;99.90;;;;;;5026381;28;20455;-76
2022/01/01 12:15:48;;;;;;;5.53;3.78;;;11.20;99.90;;;;;;5027076;28;20018;-75
2022/01/01 12:18:17;;;;;;;6.15;4.00;;;11.30;99.90;;;;;;5029276;28;20030;-78
2022/01/01 12:20:47;;;;;;;7.00;3.92;;;11.20;99.90;;;;;;5023643;28;20033;-75
2022/01/01 12:23:25;;;;;;;6.15;4.45;;;11.00;99.90;;;;;;5025706;28;20052;-75
2022/01/01 12:25:52;;;;;;;6.45;3.97;;;11.30;99.90;;;;;;5027615;28;20025;-76
2022/01/01 12:28:25;;;;;;;6.88;4.20;;;11.10;99.90;;;;;;5025647;28;20100;-76
2022/01/01 12:30:54;;;;;;;6.47;4.60;;;10.80;99.90;;;;;;5024096;28;20036;-77
2022/01/01 12:33:40;;;;;;;6.43;4.60;;;10.70;99.90;;;;;;5025580;28;20110;-77
2022/01/01 12:36:08;;;;;;;6.43;4.10;;;11.10;99.90;;;;;;5024269;28;20025;-76
2022/01/01 12:38:39;;;;;;;6.10;4.85;;;11.20;99.90;;;;;;5027543;28;20025;-76
2022/01/01 12:41:11;;;;;;;7.55;4.78;;;11.00;99.90;;;;;;5027435;28;20090;-77
2022/01/01 12:43:59;;;;;;;7.38;4.45;;;11.30;99.90;;;;;;5025064;28;20056;-77
2022/01/01 12:46:26;;;;;;;10.88;5.05;;;11.40;99.90;;;;;;5019219;28;20084;-77
2022/01/01 12:48:54;;;;;;;7.40;5.25;;;11.20;99.90;;;;;;5026819;28;20095;-77
2022/01/01 12:51:23;;;;;;;7.38;4.53;;;11.20;99.90;;;;;;5024985;28;20025;-77